MKJP METAR and TAF | Updated Today

MKJP METAR

Norman Manley International Airport

Observation time: 6 min. ago

MKJP 070900Z 33007KT 9999 FEW022 26/19 Q1014

Need help? Read our tutorial on how to read METARs or read the parsed version below.

Norman Manley International Airport (MKJP) METAR

  • Weather conditions on Tue, 07 Dec 2021 09:00:00 +0000 (6 min. ago):
  • Present conditions: Dry
  • Clouds: A few at 671 meters
  • Visibility: Greater than 10 km
  • Wind: 330 degrees at 7 knots
  • Temperature: 26 celsius
  • Dew point: 19 celsius
  • Pressure: 1014 millibars
  • Remarks: None


Useful to know...

MKJP TAF

Norman Manley International Airport

TAF MKJP 070515Z 0706/0806 36005KT 9999 FEW022 BECMG 0715/0717 14025KT BECMG 0804/0806 36005KT
Observation time: 3:51 hr. ago
Need help? Read our tutorial on how to read TAFs or read the parsed version below.

Parsed version of TAF for Norman Manley International Airport (MKJP)

  • From 07 December at 06:00 UTC, to day 08 of the month at 06:00 UTC
  • Clouds: A few at 671 meters
  • Visibility: Greater than 10 km
  • Wind: 360 degrees at 5
  • Expected to arise soon, from 07 December at 15:00 UTC, to day 07 of the month at 17:00 UTC
  • Wind: 140 degrees at 25
  • Expected to arise soon, from 08 December at 04:00 UTC, to day 08 of the month at 06:00 UTC
  • Wind: 360 degrees at 5

Airports near MKJP

No airports found within 100nm radius.